createdAt,value
2019-05-01T00:00:23.262Z,67.7
2019-05-01T00:01:10.782Z,67.6
2019-05-01T00:01:58.976Z,67.8
2019-05-01T00:02:47.167Z,68.1
2019-05-01T00:03:40.716Z,68.3
2019-05-01T00:04:29.450Z,68.6
2019-05-01T00:05:17.094Z,68.8
2019-05-01T00:06:05.317Z,68.8
2019-05-01T00:06:53.449Z,68.8
2019-05-01T00:07:47.026Z,68.8
2019-05-01T00:08:35.783Z,68.6
2019-05-01T00:09:23.376Z,68.2
2019-05-01T00:10:11.573Z,68.5
2019-05-01T00:10:59.760Z,68.3
2019-05-01T00:11:23.033Z,68.3
2019-05-01T00:11:48.701Z,68.0
2019-05-01T00:12:37.477Z,68.0
2019-05-01T00:13:25.080Z,68.0
2019-05-01T00:14:13.239Z,68.1
2019-05-01T00:15:01.434Z,68.1
2019-05-01T00:16:43.210Z,68.2
2019-05-01T00:17:31.965Z,68.3
2019-05-01T00:18:19.571Z,68.4
2019-05-01T00:19:07.788Z,68.2
2019-05-01T00:20:02.017Z,68.1
2019-05-01T00:20:49.479Z,68.1
2019-05-01T00:21:38.345Z,68.0
2019-05-01T00:22:25.838Z,68.1
2019-05-01T00:23:14.032Z,68.3
2019-05-01T00:24:07.585Z,68.7
2019-05-01T00:24:55.785Z,68.8
2019-05-01T00:25:44.494Z,68.9
2019-05-01T00:26:32.130Z,68.7
2019-05-01T00:27:20.301Z,68.8
2019-05-01T00:28:13.861Z,68.9
2019-05-01T00:29:02.028Z,69.1
2019-05-01T00:29:50.838Z,69.0
2019-05-01T00:30:30.446Z,69.0
2019-05-01T00:30:31.865Z,69.0
2019-05-01T00:31:20.039Z,69.1
2019-05-01T00:32:13.726Z,69.2
2019-05-01T00:33:01.772Z,69.1
2019-05-01T00:33:50.529Z,69.2
2019-05-01T00:34:38.116Z,69.5
2019-05-01T00:35:26.304Z,69.2
2019-05-01T00:36:19.864Z,69.4
2019-05-01T00:37:08.068Z,69.3
2019-05-01T00:37:56.763Z,69.2
2019-05-01T00:38:44.406Z,69.1
2019-05-01T00:39:32.682Z,68.9
2019-05-01T00:40:26.156Z,68.6
2019-05-01T00:41:14.319Z,68.6
2019-05-01T00:42:03.168Z,68.3
2019-05-01T00:42:50.679Z,68.1
2019-05-01T00:43:38.864Z,67.7
2019-05-01T00:44:32.416Z,68.0
2019-05-01T00:45:20.612Z,67.9
2019-05-01T00:46:09.379Z,67.7
2019-05-01T00:46:56.951Z,67.9
2019-05-01T00:47:45.155Z,67.9
2019-05-01T00:48:38.695Z,67.9
2019-05-01T00:49:26.872Z,67.8
2019-05-01T00:50:15.856Z,67.6
2019-05-01T00:51:03.247Z,67.9
2019-05-01T00:51:51.449Z,67.6
2019-05-01T00:52:44.976Z,67.3
2019-05-01T00:53:33.177Z,67.5
2019-05-01T00:54:24.724Z,67.6
2019-05-01T00:55:09.519Z,67.9
2019-05-01T00:55:57.821Z,68.2
2019-05-01T00:56:51.606Z,68.3
2019-05-01T00:57:39.455Z,68.5
2019-05-01T00:58:28.218Z,68.6
2019-05-01T00:59:15.831Z,68.7
2019-05-01T01:00:04.008Z,68.2
2019-05-01T01:00:57.566Z,68.5
2019-05-01T01:01:45.789Z,68.6
2019-05-01T01:02:34.434Z,68.8
2019-05-01T01:03:22.090Z,68.9
2019-05-01T01:04:10.457Z,69.2
2019-05-01T01:05:03.819Z,69.3
2019-05-01T01:05:51.985Z,69.5
2019-05-01T01:06:41.188Z,69.7
2019-05-01T01:07:28.357Z,69.7
2019-05-01T01:08:16.528Z,69.7
2019-05-01T01:09:10.081Z,69.7
2019-05-01T01:09:58.254Z,69.8
2019-05-01T01:10:47.088Z,69.9
2019-05-01T01:11:34.623Z,70.0
2019-05-01T01:12:22.783Z,70.3
2019-05-01T01:13:16.332Z,70.3
2019-05-01T01:14:04.514Z,70.5
2019-05-01T01:14:53.241Z,70.3
2019-05-01T01:15:40.859Z,70.3
2019-05-01T01:16:29.055Z,70.4
2019-05-01T01:17:22.574Z,70.6
2019-05-01T01:18:10.830Z,70.9
2019-05-01T01:18:59.446Z,71.1
2019-05-01T01:19:47.086Z,71.2
2019-05-01T01:20:35.258Z,71.4
2019-05-01T01:21:28.805Z,71.6
2019-05-01T01:22:16.981Z,71.9
2019-05-01T01:23:05.765Z,71.9
2019-05-01T01:23:53.343Z,72.0
2019-05-01T01:24:41.503Z,72.0
2019-05-01T01:25:35.045Z,71.9
2019-05-01T01:26:23.462Z,71.9
2019-05-01T01:27:11.927Z,72.0
2019-05-01T01:27:59.561Z,72.0
2019-05-01T01:28:47.752Z,71.9
2019-05-01T01:29:41.266Z,72.0
2019-05-01T01:30:29.426Z,71.9
2019-05-01T01:31:18.144Z,71.9
2019-05-01T01:32:06.913Z,71.9
2019-05-01T01:32:53.963Z,72.2
2019-05-01T01:33:47.530Z,72.1
2019-05-01T01:34:35.681Z,72.1
2019-05-01T01:35:24.476Z,72.1
2019-05-01T01:36:12.054Z,71.9
2019-05-01T01:37:00.202Z,71.8
2019-05-01T01:37:53.737Z,71.9
2019-05-01T01:38:41.928Z,72.1
2019-05-01T01:39:03.284Z,72.1
2019-05-01T01:39:24.195Z,72.1
2019-05-01T01:40:11.852Z,72.3
2019-05-01T01:40:59.990Z,72.3
2019-05-01T01:41:53.561Z,72.5
2019-05-01T01:42:41.711Z,72.4
2019-05-01T01:43:30.432Z,72.8
2019-05-01T01:44:18.048Z,72.8
2019-05-01T01:45:06.262Z,73.0
2019-05-01T01:45:59.781Z,73.0
2019-05-01T01:46:47.948Z,73.1
2019-05-01T01:47:36.686Z,73.1
2019-05-01T01:48:24.290Z,73.3
2019-05-01T01:49:12.471Z,73.4
2019-05-01T01:50:06.024Z,73.6
2019-05-01T01:50:54.171Z,73.6
2019-05-01T01:51:42.908Z,73.4
2019-05-01T01:52:30.532Z,73.4
2019-05-01T01:53:18.698Z,73.2
2019-05-01T01:54:12.230Z,72.9
2019-05-01T01:55:01.226Z,72.7
2019-05-01T01:55:49.150Z,72.7
2019-05-01T01:56:36.788Z,72.5
2019-05-01T01:57:24.932Z,72.1
2019-05-01T01:58:18.473Z,72.0
2019-05-01T01:58:41.764Z,72.0
2019-05-01T01:59:02.051Z,72.1
2019-05-01T01:59:50.748Z,72.0
2019-05-01T02:00:38.383Z,72.0
2019-05-01T02:01:26.578Z,72.0
2019-05-01T02:02:20.105Z,71.7
2019-05-01T02:03:08.259Z,71.6
2019-05-01T02:03:56.976Z,71.8
2019-05-01T02:04:44.612Z,71.6
2019-05-01T02:05:32.784Z,71.6
2019-05-01T02:06:26.346Z,71.4
2019-05-01T02:07:14.508Z,71.1
2019-05-01T02:08:03.237Z,71.0
2019-05-01T02:08:56.538Z,70.7
2019-05-01T02:09:38.993Z,70.5
2019-05-01T02:10:42.626Z,70.5
2019-05-01T02:11:20.726Z,70.3
2019-05-01T02:12:11.998Z,70.2
2019-05-01T02:12:57.107Z,69.9
2019-05-01T02:13:45.236Z,69.9
2019-05-01T02:14:38.791Z,70.0
2019-05-01T02:15:27.057Z,70.3
2019-05-01T02:16:15.664Z,70.2
2019-05-01T02:17:03.362Z,70.2
2019-05-01T02:17:51.512Z,70.4
2019-05-01T02:18:45.030Z,70.2
2019-05-01T02:19:33.198Z,70.2
2019-05-01T02:20:21.905Z,70.2
2019-05-01T02:21:09.530Z,70.4
2019-05-01T02:21:57.714Z,70.6
2019-05-01T02:22:51.266Z,70.4
2019-05-01T02:23:39.416Z,70.4
2019-05-01T02:24:28.160Z,70.6
2019-05-01T02:25:15.764Z,70.6
2019-05-01T02:26:03.928Z,70.6
2019-05-01T02:26:57.472Z,70.5
2019-05-01T02:27:45.650Z,70.6
2019-05-01T02:28:34.378Z,70.6
2019-05-01T02:29:21.976Z,70.8
2019-05-01T02:30:10.144Z,70.8
2019-05-01T02:31:03.677Z,70.7
2019-05-01T02:31:51.855Z,70.6
2019-05-01T02:32:40.577Z,70.8
2019-05-01T02:33:28.192Z,70.8
2019-05-01T02:34:16.377Z,70.7
2019-05-01T02:35:09.901Z,70.9
2019-05-01T02:35:58.060Z,70.8
2019-05-01T02:36:46.831Z,70.8
2019-05-01T02:37:34.401Z,70.8
2019-05-01T02:38:22.553Z,70.9
2019-05-01T02:39:16.102Z,71.2
2019-05-01T02:40:04.265Z,71.1
2019-05-01T02:40:52.993Z,71.0
2019-05-01T02:41:41.655Z,71.3
2019-05-01T02:42:28.767Z,71.4
2019-05-01T02:43:22.317Z,71.1
2019-05-01T02:44:10.504Z,71.1
2019-05-01T02:44:59.200Z,71.3
2019-05-01T02:45:46.803Z,71.3
2019-05-01T02:46:34.968Z,71.4
2019-05-01T02:47:28.514Z,71.5
2019-05-01T02:48:16.668Z,71.7
2019-05-01T02:49:05.478Z,71.6
2019-05-01T02:49:53.042Z,71.7
2019-05-01T02:50:41.166Z,71.6
2019-05-01T02:51:34.710Z,71.4
2019-05-01T02:52:22.870Z,71.2
2019-05-01T02:53:11.559Z,71.2
2019-05-01T02:53:59.190Z,71.2
2019-05-01T02:54:47.378Z,71.4
2019-05-01T02:55:40.889Z,71.4
2019-05-01T02:56:29.052Z,71.5
2019-05-01T02:57:17.786Z,71.3
2019-05-01T02:58:05.397Z,71.4
2019-05-01T02:58:53.557Z,71.6
2019-05-01T02:59:47.091Z,71.7
2019-05-01T03:00:35.273Z,71.9
2019-05-01T03:01:23.986Z,72.1
2019-05-01T03:02:11.602Z,72.3
2019-05-01T03:02:59.751Z,72.4
2019-05-01T03:03:53.293Z,72.7
2019-05-01T03:04:41.471Z,73.1
2019-05-01T03:05:30.226Z,73.1
2019-05-01T03:06:17.788Z,73.1
2019-05-01T03:07:05.968Z,73.4
2019-05-01T03:07:59.526Z,73.5
2019-05-01T03:08:47.652Z,73.7
2019-05-01T03:09:00.130Z,73.7
2019-05-01T03:09:30.154Z,74.0
2019-05-01T03:10:17.783Z,74.1
2019-05-01T03:11:05.927Z,74.0
2019-05-01T03:11:59.447Z,73.8
2019-05-01T03:12:47.608Z,73.9
2019-05-01T03:13:36.355Z,74.0
2019-05-01T03:14:23.989Z,74.2
2019-05-01T03:15:12.130Z,74.4
2019-05-01T03:16:05.681Z,74.3
2019-05-01T03:16:53.808Z,74.3
2019-05-01T03:17:42.572Z,74.3
2019-05-01T03:18:30.130Z,74.4
2019-05-01T03:19:18.294Z,74.3
2019-05-01T03:20:11.819Z,74.2
2019-05-01T03:20:59.995Z,74.1
2019-05-01T03:21:48.759Z,74.0
2019-05-01T03:22:36.310Z,74.0
2019-05-01T03:23:24.479Z,74.2
2019-05-01T03:24:18.011Z,74.2
2019-05-01T03:25:06.164Z,73.8
2019-05-01T03:25:54.910Z,73.9
2019-05-01T03:26:42.475Z,74.0
2019-05-01T03:27:30.668Z,74.2
2019-05-01T03:27:44.470Z,74.2
2019-05-01T03:28:19.322Z,74.0
2019-05-01T03:29:07.471Z,74.0
2019-05-01T03:29:56.180Z,73.9
2019-05-01T03:30:43.805Z,73.7
2019-05-01T03:31:31.956Z,73.8
2019-05-01T03:32:25.486Z,73.7
2019-05-01T03:33:13.663Z,73.6
2019-05-01T03:34:02.380Z,73.8
2019-05-01T03:34:52.664Z,74.1
2019-05-01T03:35:38.148Z,74.1
2019-05-01T03:36:31.682Z,74.2
2019-05-01T03:37:19.848Z,74.4
2019-05-01T03:38:08.571Z,74.4
2019-05-01T03:38:56.172Z,74.4
2019-05-01T03:39:44.308Z,74.6
2019-05-01T03:40:37.845Z,74.8
2019-05-01T03:41:26.011Z,75.0
2019-05-01T03:42:14.693Z,75.0
2019-05-01T03:43:02.352Z,75.0
2019-05-01T03:43:50.481Z,75.0
2019-05-01T03:44:44.037Z,75.0
2019-05-01T03:45:34.353Z,75.1
2019-05-01T03:46:20.913Z,75.3
2019-05-01T03:47:08.482Z,75.4
2019-05-01T03:47:56.648Z,75.3
2019-05-01T03:48:50.203Z,75.5
2019-05-01T03:49:38.345Z,75.5
2019-05-01T03:50:27.076Z,75.4
2019-05-01T03:51:14.684Z,75.4
2019-05-01T03:52:02.817Z,75.5
2019-05-01T03:52:56.365Z,75.5
2019-05-01T03:53:44.507Z,75.3
2019-05-01T03:54:33.228Z,75.1
2019-05-01T03:55:20.845Z,74.9
2019-05-01T03:56:09.000Z,74.9
2019-05-01T03:57:02.518Z,75.0
2019-05-01T03:57:50.673Z,75.3
2019-05-01T03:58:39.361Z,75.4
2019-05-01T03:59:26.972Z,75.6
2019-05-01T04:00:15.142Z,75.6
2019-05-01T04:01:08.701Z,75.7
2019-05-01T04:01:56.834Z,75.6
2019-05-01T04:02:45.574Z,75.6
2019-05-01T04:03:33.138Z,75.7
2019-05-01T04:04:21.305Z,75.6
2019-05-01T04:05:14.836Z,75.8
2019-05-01T04:06:03.006Z,75.8
2019-05-01T04:06:51.748Z,75.9
2019-05-01T04:07:39.324Z,75.8
2019-05-01T04:08:27.456Z,75.7
2019-05-01T04:09:21.028Z,75.6
2019-05-01T04:10:09.145Z,75.6
2019-05-01T04:10:57.896Z,75.6
2019-05-01T04:11:45.471Z,75.5
2019-05-01T04:12:33.629Z,75.6
2019-05-01T04:13:27.177Z,75.7
2019-05-01T04:14:15.321Z,75.9
2019-05-01T04:15:04.044Z,75.5
2019-05-01T04:15:51.651Z,75.5
2019-05-01T04:16:39.786Z,75.6
2019-05-01T04:17:33.321Z,75.8
2019-05-01T04:18:21.470Z,75.8
2019-05-01T04:19:10.174Z,75.8
2019-05-01T04:19:57.805Z,75.9
2019-05-01T04:20:45.962Z,75.9
2019-05-01T04:21:39.521Z,76.0
2019-05-01T04:22:27.673Z,76.1
2019-05-01T04:23:16.369Z,76.2
2019-05-01T04:24:03.961Z,76.0
2019-05-01T04:24:52.132Z,76.1
2019-05-01T04:25:45.659Z,76.2
2019-05-01T04:26:33.841Z,76.0
2019-05-01T04:27:22.550Z,76.1
2019-05-01T04:28:10.123Z,76.0
2019-05-01T04:28:58.282Z,75.9
2019-05-01T04:29:51.805Z,75.9
2019-05-01T04:30:39.972Z,75.6
2019-05-01T04:31:28.678Z,75.6
2019-05-01T04:32:16.310Z,75.5
2019-05-01T04:33:04.458Z,75.3
2019-05-01T04:33:57.989Z,75.5
2019-05-01T04:34:46.133Z,75.3
2019-05-01T04:35:23.452Z,75.3
2019-05-01T04:35:26.127Z,75.1
2019-05-01T04:36:13.806Z,75.0
2019-05-01T04:37:01.981Z,75.1
2019-05-01T04:37:55.492Z,75.0
2019-05-01T04:38:43.672Z,75.2
2019-05-01T04:39:32.425Z,75.2
2019-05-01T04:40:19.995Z,75.2
2019-05-01T04:41:08.152Z,75.4
2019-05-01T04:42:01.697Z,75.6
2019-05-01T04:42:49.848Z,75.6
2019-05-01T04:43:38.588Z,75.4
2019-05-01T04:44:26.161Z,75.2
2019-05-01T04:45:14.321Z,75.1
2019-05-01T04:46:07.858Z,74.8
2019-05-01T04:46:56.036Z,74.7
2019-05-01T04:47:44.726Z,74.7
2019-05-01T04:48:32.356Z,74.9
2019-05-01T04:49:20.506Z,74.9
2019-05-01T04:50:14.049Z,74.8
2019-05-01T04:51:02.210Z,74.8
2019-05-01T04:51:50.969Z,74.9
2019-05-01T04:52:38.557Z,75.0
2019-05-01T04:53:26.722Z,74.8
2019-05-01T04:54:20.222Z,74.5
2019-05-01T04:54:29.778Z,74.5
2019-05-01T04:55:08.276Z,74.1
2019-05-01T04:55:56.994Z,74.2
2019-05-01T04:56:44.593Z,74.2
2019-05-01T04:57:32.800Z,74.2
2019-05-01T04:58:26.292Z,74.3
2019-05-01T04:59:14.443Z,74.0
2019-05-01T05:00:03.214Z,73.9
2019-05-01T05:00:50.778Z,73.8
2019-05-01T05:01:38.939Z,73.7
2019-05-01T05:02:32.466Z,73.8
2019-05-01T05:03:20.631Z,73.8
2019-05-01T05:04:09.379Z,73.4
2019-05-01T05:04:56.938Z,73.5
2019-05-01T05:05:45.133Z,73.6
2019-05-01T05:06:38.636Z,73.5
2019-05-01T05:07:26.788Z,73.6
2019-05-01T05:08:15.499Z,73.5
2019-05-01T05:09:03.116Z,73.3
2019-05-01T05:09:51.283Z,73.3
2019-05-01T05:10:44.844Z,73.4
2019-05-01T05:11:32.994Z,73.4
2019-05-01T05:12:21.688Z,73.4
2019-05-01T05:13:09.311Z,73.3
2019-05-01T05:13:57.459Z,73.0
2019-05-01T05:14:50.991Z,73.0
2019-05-01T05:15:39.171Z,73.0
2019-05-01T05:16:27.882Z,72.9
2019-05-01T05:17:15.482Z,72.9
2019-05-01T05:18:03.640Z,73.0
2019-05-01T05:18:57.171Z,73.2
2019-05-01T05:19:45.339Z,73.1
2019-05-01T05:20:34.061Z,73.2
2019-05-01T05:21:21.670Z,73.3
2019-05-01T05:22:09.829Z,73.2
2019-05-01T05:23:03.362Z,73.5
2019-05-01T05:23:51.527Z,73.2
2019-05-01T05:24:40.222Z,72.9
2019-05-01T05:25:27.857Z,72.5
2019-05-01T05:26:16.060Z,72.3
2019-05-01T05:27:09.555Z,72.0
2019-05-01T05:27:57.748Z,71.6
2019-05-01T05:28:46.477Z,71.5
2019-05-01T05:29:34.081Z,71.4
2019-05-01T05:30:22.235Z,71.1
2019-05-01T05:31:15.799Z,71.4
2019-05-01T05:32:03.966Z,71.0
2019-05-01T05:32:52.689Z,70.8
2019-05-01T05:33:40.285Z,71.6
2019-05-01T05:34:28.443Z,71.5
2019-05-01T05:35:21.998Z,71.5
2019-05-01T05:36:10.129Z,71.7
2019-05-01T05:36:58.856Z,71.3
2019-05-01T05:37:46.476Z,70.7
2019-05-01T05:38:34.668Z,70.5
2019-05-01T05:39:28.197Z,70.4
2019-05-01T05:40:16.359Z,70.3
2019-05-01T05:41:05.152Z,70.3
2019-05-01T05:41:52.695Z,70.2
2019-05-01T05:42:40.934Z,70.2
2019-05-01T05:43:34.404Z,70.1
2019-05-01T05:44:22.608Z,70.4
2019-05-01T05:45:11.338Z,70.5
2019-05-01T05:45:58.912Z,70.7
2019-05-01T05:46:47.084Z,70.7
2019-05-01T05:47:40.615Z,70.7
2019-05-01T05:48:28.820Z,70.5
2019-05-01T05:49:17.532Z,70.5
2019-05-01T05:50:05.129Z,70.4
2019-05-01T05:50:54.077Z,70.3
2019-05-01T05:51:46.846Z,70.4
2019-05-01T05:52:35.022Z,70.6
2019-05-01T05:53:23.750Z,70.5
2019-05-01T05:54:11.351Z,70.6
2019-05-01T05:54:59.536Z,70.6
2019-05-01T05:55:53.063Z,70.4
2019-05-01T05:56:41.260Z,70.3
2019-05-01T05:57:30.095Z,70.1
2019-05-01T05:58:17.618Z,70.1
2019-05-01T05:59:05.748Z,70.1
2019-05-01T05:59:59.284Z,70.1
2019-05-01T06:00:47.462Z,69.9
2019-05-01T06:01:36.181Z,69.4
2019-05-01T06:02:23.824Z,69.5
2019-05-01T06:03:11.966Z,69.6
2019-05-01T06:04:05.526Z,69.5
2019-05-01T06:04:53.708Z,69.4
2019-05-01T06:05:42.432Z,69.3
2019-05-01T06:06:30.052Z,69.2
2019-05-01T06:07:18.211Z,69.2
2019-05-01T06:08:11.757Z,69.1
2019-05-01T06:08:59.937Z,69.0
2019-05-01T06:09:20.962Z,69.0
2019-05-01T06:09:44.651Z,68.8
2019-05-01T06:10:29.493Z,68.7
2019-05-01T06:11:17.686Z,68.4
2019-05-01T06:12:11.245Z,68.0
2019-05-01T06:12:59.394Z,67.8
2019-05-01T06:13:48.119Z,67.3
2019-05-01T06:14:35.800Z,67.1
2019-05-01T06:15:23.934Z,66.9
2019-05-01T06:16:17.533Z,66.9
2019-05-01T06:17:05.660Z,67.0
2019-05-01T06:17:54.403Z,66.7
2019-05-01T06:18:42.021Z,67.1
2019-05-01T06:19:30.203Z,67.2
2019-05-01T06:20:26.099Z,67.1
2019-05-01T06:21:13.012Z,66.9
2019-05-01T06:22:04.893Z,66.9
2019-05-01T06:22:48.341Z,66.9
2019-05-01T06:23:36.474Z,67.0
2019-05-01T06:23:52.624Z,67.0
2019-05-01T06:24:23.217Z,67.0
2019-05-01T06:25:20.840Z,67.0
2019-05-01T06:26:02.489Z,66.9
2019-05-01T06:26:47.762Z,66.7
2019-05-01T06:27:35.934Z,67.1
2019-05-01T06:28:29.791Z,66.8
2019-05-01T06:29:17.681Z,66.9
2019-05-01T06:30:10.901Z,66.8
2019-05-01T06:30:54.049Z,66.9
2019-05-01T06:31:42.214Z,67.0
2019-05-01T06:32:35.782Z,66.9
2019-05-01T06:33:23.966Z,66.8
2019-05-01T06:34:12.688Z,66.7
2019-05-01T06:35:03.006Z,66.6
2019-05-01T06:35:48.507Z,66.5
2019-05-01T06:36:44.230Z,66.4
2019-05-01T06:37:30.347Z,66.5
2019-05-01T06:38:19.180Z,66.5
2019-05-01T06:39:11.221Z,66.2
2019-05-01T06:39:54.833Z,66.1
2019-05-01T06:40:48.390Z,65.9
2019-05-01T06:41:42.329Z,65.6
2019-05-01T06:42:25.515Z,65.8
2019-05-01T06:43:12.984Z,65.8
2019-05-01T06:44:02.240Z,65.8
2019-05-01T06:44:54.717Z,66.0
2019-05-01T06:45:46.808Z,65.7
2019-05-01T06:46:35.377Z,65.7
2019-05-01T06:47:19.303Z,65.9
2019-05-01T06:48:07.434Z,65.8
2019-05-01T06:49:01.006Z,65.7
2019-05-01T06:49:49.181Z,65.8
2019-05-01T06:50:41.677Z,65.6
2019-05-01T06:51:26.230Z,65.6
2019-05-01T06:52:13.767Z,65.6
2019-05-01T06:53:07.357Z,65.5
2019-05-01T06:53:55.497Z,65.3
2019-05-01T06:54:47.812Z,65.2
2019-05-01T06:55:31.885Z,65.4
2019-05-01T06:56:20.067Z,65.5
2019-05-01T06:57:13.639Z,65.3
2019-05-01T06:58:01.833Z,65.1
2019-05-01T06:58:51.015Z,65.1
2019-05-01T06:59:38.227Z,65.0
2019-05-01T07:00:26.403Z,65.3
2019-05-01T07:01:23.855Z,65.1
2019-05-01T07:02:08.171Z,65.2
2019-05-01T07:02:56.914Z,65.0
2019-05-01T07:03:46.923Z,64.8
2019-05-01T07:04:37.895Z,64.7
2019-05-01T07:05:26.304Z,64.5
2019-05-01T07:06:14.686Z,64.3
2019-05-01T07:07:06.609Z,64.4
2019-05-01T07:07:53.151Z,64.5
2019-05-01T07:08:39.694Z,64.5
2019-05-01T07:09:32.627Z,64.5
2019-05-01T07:10:30.728Z,64.4
2019-05-01T07:11:10.940Z,64.5
2019-05-01T07:11:57.296Z,64.5
2019-05-01T07:12:45.486Z,64.1
2019-05-01T07:13:40.032Z,64.3
2019-05-01T07:14:27.207Z,64.0
2019-05-01T07:15:15.963Z,64.1
2019-05-01T07:16:03.612Z,64.0
2019-05-01T07:16:51.812Z,63.7
2019-05-01T07:17:47.885Z,63.4
2019-05-01T07:18:33.613Z,63.5
2019-05-01T07:19:22.393Z,63.4
2019-05-01T07:20:11.827Z,63.4
2019-05-01T07:20:58.197Z,63.5
2019-05-01T07:21:51.770Z,63.2
2019-05-01T07:22:42.132Z,63.2
2019-05-01T07:23:28.745Z,63.2
2019-05-01T07:24:16.384Z,63.4
2019-05-01T07:25:05.276Z,63.5
2019-05-01T07:25:58.151Z,63.7
2019-05-01T07:26:48.107Z,63.5
2019-05-01T07:27:35.075Z,63.5
2019-05-01T07:28:22.752Z,63.4
2019-05-01T07:29:11.086Z,63.2
2019-05-01T07:30:04.553Z,62.5
2019-05-01T07:30:54.779Z,62.6
2019-05-01T07:31:41.521Z,62.7
2019-05-01T07:32:29.164Z,62.7
2019-05-01T07:33:17.971Z,62.6
2019-05-01T07:34:16.657Z,62.4
2019-05-01T07:35:02.045Z,62.4
2019-05-01T07:35:47.894Z,62.7
2019-05-01T07:36:35.621Z,62.9
2019-05-01T07:37:25.995Z,62.9
2019-05-01T07:38:17.349Z,62.9
2019-05-01T07:39:09.600Z,63.1
2019-05-01T07:39:54.371Z,62.8
2019-05-01T07:40:42.090Z,62.4
2019-05-01T07:41:33.996Z,62.1
2019-05-01T07:42:23.789Z,62.0
2019-05-01T07:43:12.002Z,61.9
2019-05-01T07:44:01.036Z,62.0
2019-05-01T07:44:48.439Z,61.8
2019-05-01T07:45:38.868Z,61.7
2019-05-01T07:46:30.229Z,61.8
2019-05-01T07:47:18.493Z,61.8
2019-05-01T07:48:07.250Z,61.8
2019-05-01T07:48:54.877Z,61.6
2019-05-01T07:49:43.107Z,61.4
2019-05-01T07:50:36.702Z,61.2
2019-05-01T07:51:24.910Z,61.2
2019-05-01T07:52:17.209Z,61.4
2019-05-01T07:53:01.337Z,61.5
2019-05-01T07:53:49.566Z,61.2
2019-05-01T07:54:43.575Z,61.0
2019-05-01T07:55:18.354Z,61.0
2019-05-01T07:55:28.463Z,60.6
2019-05-01T07:56:17.383Z,60.4
2019-05-01T07:57:04.949Z,60.3
2019-05-01T07:57:53.241Z,60.3
2019-05-01T07:58:47.621Z,60.3
2019-05-01T07:59:34.972Z,60.2
2019-05-01T08:00:23.707Z,60.1
2019-05-01T08:01:13.010Z,60.6
2019-05-01T08:01:59.597Z,60.7
2019-05-01T08:02:53.187Z,61.0
2019-05-01T08:03:42.919Z,61.3
2019-05-01T08:04:36.934Z,61.6
2019-05-01T08:05:17.865Z,61.9
2019-05-01T08:06:06.087Z,61.9
2019-05-01T08:06:59.680Z,61.7
2019-05-01T08:07:47.922Z,61.9
2019-05-01T08:08:39.773Z,61.9
2019-05-01T08:09:24.365Z,61.8
2019-05-01T08:10:13.030Z,61.5
2019-05-01T08:11:10.167Z,61.4
2019-05-01T08:11:54.429Z,61.4
2019-05-01T08:12:45.153Z,61.4
2019-05-01T08:13:34.994Z,61.5
2019-05-01T08:14:19.113Z,61.8
2019-05-01T08:15:12.733Z,61.7
2019-05-01T08:16:02.113Z,61.5
2019-05-01T08:16:49.725Z,61.3
2019-05-01T08:17:37.413Z,61.2
2019-05-01T08:18:28.044Z,61.1
2019-05-01T08:19:19.231Z,60.7
2019-05-01T08:20:09.844Z,60.5
2019-05-01T08:20:56.394Z,60.4
2019-05-01T08:21:43.934Z,60.3
2019-05-01T08:22:37.316Z,59.8
2019-05-01T08:23:25.800Z,59.9
2019-05-01T08:24:17.888Z,60.1
2019-05-01T08:25:02.810Z,60.3
2019-05-01T08:25:50.500Z,60.5
2019-05-01T08:26:39.547Z,60.8
2019-05-01T08:27:32.348Z,60.9
2019-05-01T08:28:20.571Z,61.2
2019-05-01T08:29:09.374Z,61.3
2019-05-01T08:29:57.065Z,61.4
2019-05-01T08:30:47.955Z,61.9
2019-05-01T08:31:38.923Z,62.0
2019-05-01T08:32:27.171Z,62.2
2019-05-01T08:33:16.099Z,62.1
2019-05-01T08:33:51.656Z,62.1
2019-05-01T08:34:02.388Z,62.1
2019-05-01T08:34:50.641Z,62.0
2019-05-01T08:35:44.242Z,61.9
2019-05-01T08:36:32.489Z,61.8
2019-05-01T08:37:22.675Z,61.5
2019-05-01T08:38:08.982Z,61.3
2019-05-01T08:38:57.213Z,61.1
2019-05-01T08:39:50.835Z,61.2
2019-05-01T08:40:39.083Z,61.1
2019-05-01T08:41:31.830Z,61.3
2019-05-01T08:42:15.592Z,61.5
2019-05-01T08:43:03.815Z,61.4
2019-05-01T08:43:57.436Z,61.2
2019-05-01T08:44:45.718Z,60.7
2019-05-01T08:45:35.840Z,60.5
2019-05-01T08:46:24.774Z,60.6
2019-05-01T08:47:10.470Z,60.6
2019-05-01T08:48:04.049Z,60.6
2019-05-01T08:48:52.332Z,60.7
2019-05-01T08:49:41.720Z,60.8
2019-05-01T08:50:28.837Z,60.7
2019-05-01T08:51:17.088Z,60.8
2019-05-01T08:52:13.649Z,60.5
2019-05-01T08:52:58.962Z,60.4
2019-05-01T08:53:47.911Z,60.3
2019-05-01T08:54:35.510Z,60.1
2019-05-01T08:55:23.743Z,59.9
2019-05-01T08:56:21.928Z,59.6
2019-05-01T08:57:07.938Z,59.4
2019-05-01T08:57:55.777Z,59.2
2019-05-01T08:58:44.749Z,58.9
2019-05-01T08:59:30.514Z,58.8
2019-05-01T09:00:24.040Z,58.7
2019-05-01T09:01:14.972Z,58.7
2019-05-01T09:02:09.428Z,58.5
2019-05-01T09:02:48.838Z,58.1
2019-05-01T09:03:37.110Z,58.0
2019-05-01T09:04:25.245Z,57.7
2019-05-01T09:05:27.638Z,57.4
2019-05-01T09:05:59.071Z,57.3
2019-05-01T09:06:46.445Z,57.1
2019-05-01T09:07:34.752Z,57.0
2019-05-01T09:08:22.162Z,57.0
2019-05-01T09:08:32.129Z,57.1
2019-05-01T09:09:16.643Z,56.4
2019-05-01T09:10:08.790Z,56.3
2019-05-01T09:10:54.759Z,56.2
2019-05-01T09:11:41.469Z,55.8
2019-05-01T09:12:35.179Z,56.0
2019-05-01T09:13:24.758Z,56.0
2019-05-01T09:14:12.204Z,56.2
2019-05-01T09:15:00.116Z,56.2
2019-05-01T09:15:49.447Z,56.3
2019-05-01T09:16:41.937Z,56.2
2019-05-01T09:17:30.187Z,56.0
2019-05-01T09:18:19.236Z,55.9
2019-05-01T09:19:06.756Z,55.8
2019-05-01T09:19:55.023Z,55.5
2019-05-01T09:20:48.680Z,55.4
2019-05-01T09:21:37.761Z,55.5
2019-05-01T09:22:25.835Z,55.4
2019-05-01T09:23:14.371Z,55.5
2019-05-01T09:24:01.862Z,55.4
2019-05-01T09:24:34.657Z,55.4
2019-05-01T09:24:51.225Z,55.1
2019-05-01T09:25:39.566Z,54.6
2019-05-01T09:26:28.323Z,55.0
2019-05-01T09:27:18.540Z,55.3
2019-05-01T09:28:05.989Z,55.2
2019-05-01T09:28:58.065Z,55.0
2019-05-01T09:29:46.891Z,55.4
2019-05-01T09:30:35.349Z,55.4
2019-05-01T09:31:23.161Z,55.3
2019-05-01T09:32:11.947Z,54.4
2019-05-01T09:33:04.918Z,54.2
2019-05-01T09:33:53.230Z,54.4
2019-05-01T09:34:42.724Z,54.1
2019-05-01T09:35:29.818Z,54.2
2019-05-01T09:36:18.153Z,53.9
2019-05-01T09:37:11.797Z,53.8
2019-05-01T09:38:00.126Z,53.7
2019-05-01T09:38:50.075Z,53.8
2019-05-01T09:39:40.352Z,53.7
2019-05-01T09:40:25.051Z,53.8
2019-05-01T09:41:18.690Z,53.6
2019-05-01T09:42:07.019Z,53.7
2019-05-01T09:42:59.492Z,53.4
2019-05-01T09:43:43.616Z,53.3
2019-05-01T09:44:31.931Z,53.3
2019-05-01T09:45:25.642Z,53.4
2019-05-01T09:46:13.904Z,52.8
2019-05-01T09:47:02.800Z,52.9
2019-05-01T09:47:50.530Z,52.8
2019-05-01T09:48:38.839Z,52.5
2019-05-01T09:49:32.514Z,52.2
2019-05-01T09:50:20.847Z,51.9
2019-05-01T09:51:09.708Z,51.7
2019-05-01T09:51:57.460Z,51.7
2019-05-01T09:52:36.695Z,51.8
2019-05-01T09:53:34.270Z,51.6
2019-05-01T09:54:18.698Z,51.7
2019-05-01T09:55:07.668Z,51.2
2019-05-01T09:55:55.340Z,51.6
2019-05-01T09:56:43.653Z,51.2
2019-05-01T09:57:41.288Z,51.0
2019-05-01T09:58:25.668Z,50.6
2019-05-01T09:59:17.483Z,50.3
2019-05-01T10:00:02.306Z,50.2
2019-05-01T10:00:52.807Z,50.2
2019-05-01T10:01:44.318Z,50.4
2019-05-01T10:02:32.651Z,50.6
2019-05-01T10:03:21.548Z,50.4
2019-05-01T10:04:09.317Z,50.5
2019-05-01T10:05:02.082Z,50.1
2019-05-01T10:05:51.286Z,49.4
2019-05-01T10:06:39.627Z,49.4
2019-05-01T10:07:30.648Z,49.4
2019-05-01T10:08:16.311Z,48.8
2019-05-01T10:09:04.621Z,49.2
2019-05-01T10:09:58.329Z,48.6
2019-05-01T10:10:46.700Z,48.5
2019-05-01T10:11:35.945Z,48.3
2019-05-01T10:12:23.329Z,48.3
2019-05-01T10:13:11.691Z,48.0
2019-05-01T10:14:05.356Z,47.6
2019-05-01T10:14:53.702Z,47.0
2019-05-01T10:15:42.615Z,46.7
2019-05-01T10:16:30.377Z,46.7
2019-05-01T10:17:18.736Z,45.5
2019-05-01T10:18:12.413Z,45.7
2019-05-01T10:19:00.765Z,46.0
2019-05-01T10:19:50.229Z,45.9
2019-05-01T10:20:37.465Z,44.0
2019-05-01T10:21:27.120Z,43.3
2019-05-01T10:22:19.525Z,42.9
2019-05-01T10:23:12.888Z,41.8
2019-05-01T10:23:56.813Z,40.2
2019-05-01T10:24:44.637Z,39.6
2019-05-01T10:25:33.027Z,39.2
2019-05-01T10:26:26.745Z,38.2
2019-05-01T10:27:17.138Z,38.1
2019-05-01T10:28:07.345Z,38.4
2019-05-01T10:28:51.931Z,37.8
2019-05-01T10:29:40.330Z,38.0
2019-05-01T10:30:36.225Z,37.4
2019-05-01T10:31:22.522Z,37.7
2019-05-01T10:32:11.512Z,38.3
2019-05-01T10:32:59.738Z,38.0
2019-05-01T10:33:47.838Z,38.2
2019-05-01T10:34:42.993Z,38.1
2019-05-01T10:35:41.802Z,37.1
2019-05-01T10:36:20.650Z,37.8
2019-05-01T10:37:06.965Z,37.5
2019-05-01T10:37:55.437Z,36.9
2019-05-01T10:38:49.232Z,35.2
2019-05-01T10:39:37.697Z,34.6
2019-05-01T10:40:31.791Z,35.3
2019-05-01T10:41:14.634Z,36.6
2019-05-01T10:42:03.124Z,37.8
2019-05-01T10:42:56.903Z,38.6
2019-05-01T10:43:45.374Z,39.1